createdAt,value
2018-05-31T00:00:17.645Z,54.40
2018-05-31T00:02:45.860Z,54.30
2018-05-31T00:05:14.855Z,54.40
2018-05-31T00:07:43.835Z,54.30
2018-05-31T00:10:12.071Z,54.30
2018-05-31T00:12:40.279Z,54.40
2018-05-31T00:15:08.513Z,54.30
2018-05-31T00:17:36.731Z,54.30
2018-05-31T00:20:04.981Z,54.40
2018-05-31T00:22:33.215Z,54.50
2018-05-31T00:25:02.237Z,54.80
2018-05-31T00:27:31.204Z,54.80
2018-05-31T00:29:59.452Z,54.70
2018-05-31T00:32:27.655Z,54.80
2018-05-31T00:34:55.895Z,54.90
2018-05-31T00:37:24.112Z,55.00
2018-05-31T00:39:52.390Z,55.10
2018-05-31T00:42:20.655Z,55.00
2018-05-31T00:44:48.921Z,55.10
2018-05-31T00:47:17.933Z,55.20
2018-05-31T00:49:46.934Z,55.40
2018-05-31T00:52:15.171Z,55.40
2018-05-31T00:54:43.391Z,55.40
2018-05-31T00:57:11.618Z,55.90
2018-05-31T00:59:39.856Z,56.10
2018-05-31T01:02:08.063Z,56.10
2018-05-31T01:04:36.352Z,56.20
2018-05-31T01:07:04.581Z,56.10
2018-05-31T01:09:32.796Z,56.30
2018-05-31T01:12:01.073Z,56.20
2018-05-31T01:14:29.243Z,56.20
2018-05-31T01:16:57.495Z,56.20
2018-05-31T01:19:25.752Z,56.20
2018-05-31T01:21:53.965Z,56.30
2018-05-31T01:24:22.180Z,56.30
2018-05-31T01:26:51.197Z,56.50
2018-05-31T01:29:19.401Z,56.50
2018-05-31T01:31:47.630Z,56.60
2018-05-31T01:34:16.608Z,56.70
2018-05-31T01:36:45.611Z,56.80
2018-05-31T01:39:17.564Z,56.80
2018-05-31T01:41:46.582Z,56.90
2018-05-31T01:44:14.796Z,56.90
2018-05-31T01:46:43.025Z,56.90
2018-05-31T01:49:12.021Z,57.00
2018-05-31T01:51:40.245Z,56.90
2018-05-31T01:54:09.245Z,57.30
2018-05-31T01:56:37.494Z,57.20
2018-05-31T01:59:06.477Z,57.30
2018-05-31T02:01:34.731Z,57.20
2018-05-31T02:04:03.721Z,57.60
2018-05-31T02:06:32.713Z,57.60
2018-05-31T02:09:00.954Z,57.60
2018-05-31T02:11:29.163Z,57.50
2018-05-31T02:13:58.170Z,57.80
2018-05-31T02:16:26.381Z,57.80
2018-05-31T02:18:54.611Z,57.80
2018-05-31T02:21:23.616Z,57.80
2018-05-31T02:23:51.853Z,57.70
2018-05-31T02:26:20.071Z,57.90
2018-05-31T02:28:48.291Z,57.80
2018-05-31T02:31:16.539Z,57.90
2018-05-31T02:33:44.754Z,57.90
2018-05-31T02:36:12.983Z,58.00
2018-05-31T02:38:41.225Z,58.10
2018-05-31T02:41:10.205Z,58.50
2018-05-31T02:43:38.424Z,58.40
2018-05-31T02:46:06.655Z,58.40
2018-05-31T02:48:34.872Z,58.50
2018-05-31T02:51:03.116Z,58.50
2018-05-31T02:53:31.354Z,58.50
2018-05-31T02:55:59.575Z,58.60
2018-05-31T02:58:28.592Z,58.80
2018-05-31T03:00:56.816Z,58.70
2018-05-31T03:03:25.049Z,58.70
2018-05-31T03:05:53.288Z,58.80
2018-05-31T03:08:21.521Z,59.00
2018-05-31T03:10:49.760Z,59.10
2018-05-31T03:13:18.745Z,59.20
2018-05-31T03:15:47.760Z,59.30
2018-05-31T03:18:15.991Z,59.20
2018-05-31T03:20:44.229Z,59.30
2018-05-31T03:23:12.467Z,59.50
2018-05-31T03:25:41.480Z,59.70
2018-05-31T03:28:09.706Z,59.70
2018-05-31T03:30:37.960Z,59.70
2018-05-31T03:33:06.212Z,59.60
2018-05-31T03:35:34.437Z,59.50
2018-05-31T03:38:02.710Z,59.50
2018-05-31T03:40:30.920Z,59.60
2018-05-31T03:42:59.904Z,59.70
2018-05-31T03:45:28.909Z,59.90
2018-05-31T03:47:57.161Z,59.80
2018-05-31T03:50:25.386Z,59.70
2018-05-31T03:52:53.612Z,59.80
2018-05-31T03:55:21.866Z,59.80
2018-05-31T03:57:50.097Z,59.90
2018-05-31T04:00:18.349Z,60.00
2018-05-31T04:02:47.433Z,60.00
2018-05-31T04:05:15.651Z,60.20
2018-05-31T04:07:43.899Z,60.30
2018-05-31T04:10:12.917Z,60.30
2018-05-31T04:12:41.172Z,60.30
2018-05-31T04:15:10.168Z,60.50
2018-05-31T04:17:39.176Z,60.70
2018-05-31T04:20:07.433Z,60.60
2018-05-31T04:22:36.460Z,60.60
2018-05-31T04:25:04.685Z,60.40
2018-05-31T04:27:32.931Z,60.40
2018-05-31T04:30:01.170Z,60.80
2018-05-31T04:32:29.422Z,60.70
2018-05-31T04:34:57.680Z,60.70
2018-05-31T04:37:25.932Z,61.60
2018-05-31T04:39:54.195Z,60.60
2018-05-31T04:42:22.446Z,60.80
2018-05-31T04:44:50.677Z,61.00
2018-05-31T04:47:18.946Z,61.10
2018-05-31T04:49:47.263Z,61.00
2018-05-31T04:52:15.472Z,61.20
2018-05-31T04:54:43.732Z,61.40
2018-05-31T04:57:12.731Z,61.30
2018-05-31T04:59:41.731Z,61.10
2018-05-31T05:02:09.975Z,61.00
2018-05-31T05:04:38.192Z,61.00
2018-05-31T05:07:06.466Z,61.40
2018-05-31T05:09:34.694Z,61.10
2018-05-31T05:12:02.946Z,60.90
2018-05-31T05:14:31.172Z,60.90
2018-05-31T05:16:59.435Z,60.90
2018-05-31T05:19:27.705Z,61.00
2018-05-31T05:21:55.936Z,61.30
2018-05-31T05:24:24.166Z,61.40
2018-05-31T05:26:53.181Z,61.00
2018-05-31T05:29:21.412Z,61.00
2018-05-31T05:31:49.661Z,61.00
2018-05-31T05:34:17.904Z,60.80
2018-05-31T05:36:46.927Z,60.40
2018-05-31T05:39:15.147Z,60.40
2018-05-31T05:41:43.409Z,60.30
2018-05-31T05:44:11.643Z,60.70
2018-05-31T05:46:39.874Z,60.50
2018-05-31T05:49:08.108Z,60.20
2018-05-31T05:51:36.369Z,60.10
2018-05-31T05:54:04.634Z,60.30
2018-05-31T05:56:32.877Z,60.30
2018-05-31T05:59:01.125Z,60.20
2018-05-31T06:01:29.355Z,60.10
2018-05-31T06:03:58.380Z,60.40
2018-05-31T06:06:26.611Z,60.40
2018-05-31T06:08:56.551Z,60.50
2018-05-31T06:11:24.809Z,60.40
2018-05-31T06:13:53.796Z,60.40
2018-05-31T06:16:22.826Z,60.30
2018-05-31T06:18:51.085Z,60.30
2018-05-31T06:21:19.325Z,60.20
2018-05-31T06:23:47.556Z,60.30
2018-05-31T06:26:15.843Z,61.20
2018-05-31T06:28:44.056Z,60.30
2018-05-31T06:31:13.086Z,60.90
2018-05-31T06:33:42.080Z,60.50
2018-05-31T06:36:10.324Z,60.50
2018-05-31T06:38:38.551Z,60.60
2018-05-31T06:41:06.802Z,60.90
2018-05-31T06:43:35.800Z,60.50
2018-05-31T06:46:04.044Z,60.40
2018-05-31T06:48:32.277Z,60.60
2018-05-31T06:51:00.650Z,60.20
2018-05-31T06:53:29.703Z,59.40
2018-05-31T06:55:57.932Z,59.40
2018-05-31T06:58:26.160Z,58.50
2018-05-31T07:00:55.216Z,58.20
2018-05-31T07:03:24.171Z,57.90
2018-05-31T07:05:52.434Z,57.80
2018-05-31T07:08:21.431Z,57.20
2018-05-31T07:10:49.679Z,57.10
2018-05-31T07:13:17.891Z,56.90
2018-05-31T07:15:46.156Z,56.40
2018-05-31T07:18:15.164Z,54.10
2018-05-31T07:20:43.409Z,54.00
2018-05-31T07:23:11.627Z,53.80
2018-05-31T07:25:39.909Z,54.00
2018-05-31T07:28:08.137Z,53.90
2018-05-31T07:30:36.383Z,54.10
2018-05-31T07:33:04.609Z,54.80
2018-05-31T07:35:33.620Z,53.10
2018-05-31T07:38:01.854Z,53.10
2018-05-31T07:40:30.087Z,53.30
2018-05-31T07:42:58.341Z,53.30
2018-05-31T07:45:26.587Z,52.80
2018-05-31T07:47:54.806Z,52.00
2018-05-31T07:50:23.046Z,52.00
2018-05-31T07:52:52.025Z,51.40
2018-05-31T07:55:20.273Z,51.40
2018-05-31T07:57:48.516Z,51.40
2018-05-31T08:00:16.761Z,51.10
2018-05-31T08:02:44.998Z,50.90
2018-05-31T08:05:13.247Z,51.40
2018-05-31T08:07:41.498Z,51.10
2018-05-31T08:10:10.488Z,49.80
2018-05-31T08:12:39.508Z,50.20
2018-05-31T08:15:07.749Z,50.20
2018-05-31T08:17:35.980Z,49.90
2018-05-31T08:20:04.219Z,50.30
2018-05-31T08:22:33.252Z,50.70
2018-05-31T08:25:01.482Z,50.60
2018-05-31T08:27:30.473Z,50.50
2018-05-31T08:29:59.488Z,50.70
2018-05-31T08:32:27.741Z,50.70
2018-05-31T08:34:55.967Z,50.60
2018-05-31T08:37:24.203Z,51.00
2018-05-31T08:39:53.211Z,50.70
2018-05-31T08:42:21.439Z,50.60
2018-05-31T08:44:49.697Z,50.30
2018-05-31T08:47:17.940Z,50.60
2018-05-31T08:49:46.158Z,50.50
2018-05-31T08:52:14.410Z,50.50
2018-05-31T08:54:42.634Z,50.40
2018-05-31T08:57:10.856Z,50.60
2018-05-31T08:59:39.108Z,50.60
2018-05-31T09:02:08.120Z,50.60
2018-05-31T09:04:36.346Z,50.60
2018-05-31T09:07:04.583Z,49.60
2018-05-31T09:09:32.825Z,49.30
2018-05-31T09:12:01.820Z,49.00
2018-05-31T09:14:30.837Z,49.20
2018-05-31T09:16:59.056Z,49.10
2018-05-31T09:19:27.301Z,48.80
2018-05-31T09:21:55.605Z,48.50
2018-05-31T09:24:24.580Z,48.30
2018-05-31T09:26:52.830Z,48.20
2018-05-31T09:29:21.077Z,48.50
2018-05-31T09:31:49.291Z,48.60
2018-05-31T09:34:17.546Z,47.40
2018-05-31T09:36:45.789Z,47.80
2018-05-31T09:39:14.016Z,48.00
2018-05-31T09:41:42.265Z,47.50
2018-05-31T09:44:11.257Z,46.60
2018-05-31T09:46:40.314Z,46.60
2018-05-31T09:49:08.510Z,46.60
2018-05-31T09:51:36.750Z,46.30
2018-05-31T09:54:05.007Z,47.00
2018-05-31T09:56:33.228Z,47.60
2018-05-31T09:59:01.495Z,47.50
2018-05-31T10:01:29.712Z,47.70
2018-05-31T10:03:58.708Z,45.30
2018-05-31T10:06:27.719Z,44.40
2018-05-31T10:08:55.957Z,44.40
2018-05-31T10:11:24.204Z,44.40
2018-05-31T10:13:52.419Z,44.30
2018-05-31T10:16:21.477Z,44.50
2018-05-31T10:18:49.697Z,44.40
2018-05-31T10:21:18.684Z,43.60
2018-05-31T10:23:47.712Z,43.30
2018-05-31T10:26:15.947Z,43.20
2018-05-31T10:28:44.235Z,42.80
2018-05-31T10:31:12.446Z,41.70
2018-05-31T10:33:40.676Z,41.80
2018-05-31T10:36:08.924Z,42.20
2018-05-31T10:38:37.156Z,42.00
2018-05-31T10:41:05.420Z,41.60
2018-05-31T10:43:34.420Z,41.10
2018-05-31T10:46:03.400Z,41.40
2018-05-31T10:48:32.405Z,41.80
2018-05-31T10:51:01.406Z,41.80
2018-05-31T10:53:29.655Z,41.70
2018-05-31T10:55:57.889Z,41.20
2018-05-31T10:58:26.116Z,40.10
2018-05-31T11:00:55.126Z,39.10
2018-05-31T11:03:23.353Z,39.10
2018-05-31T11:05:51.590Z,39.60
2018-05-31T11:08:19.824Z,40.10
2018-05-31T11:10:48.079Z,40.00
2018-05-31T11:13:16.312Z,40.40
2018-05-31T11:15:44.564Z,40.70
2018-05-31T11:18:13.547Z,40.30
2018-05-31T11:20:41.807Z,40.30
2018-05-31T11:23:10.021Z,40.10
2018-05-31T11:25:39.037Z,40.30
2018-05-31T11:28:07.252Z,40.30
2018-05-31T11:30:35.459Z,40.00
2018-05-31T11:33:04.472Z,40.50
2018-05-31T11:35:32.766Z,40.40
2018-05-31T11:38:00.982Z,40.60
2018-05-31T11:40:29.205Z,40.40
2018-05-31T11:42:57.444Z,40.50
2018-05-31T11:45:26.439Z,41.40
2018-05-31T11:47:54.677Z,40.60
2018-05-31T11:50:22.895Z,40.50
2018-05-31T11:52:51.933Z,40.20
2018-05-31T11:55:20.172Z,40.20
2018-05-31T11:57:48.384Z,39.70
2018-05-31T12:00:16.637Z,40.30
2018-05-31T12:02:45.655Z,39.60
2018-05-31T12:05:13.883Z,39.50
2018-05-31T12:07:42.906Z,39.20
2018-05-31T12:10:11.153Z,39.10
2018-05-31T12:12:40.158Z,39.50
2018-05-31T12:15:09.174Z,39.30
2018-05-31T12:17:37.504Z,39.30
2018-05-31T12:20:06.441Z,38.70
2018-05-31T12:22:34.695Z,38.60
2018-05-31T12:25:03.729Z,39.00
2018-05-31T12:27:31.984Z,39.00
2018-05-31T12:30:00.204Z,39.10
2018-05-31T12:32:28.467Z,38.80
2018-05-31T12:34:56.725Z,39.20
2018-05-31T12:37:24.939Z,39.70
2018-05-31T12:39:53.205Z,39.30
2018-05-31T12:42:21.502Z,38.90
2018-05-31T12:44:49.742Z,39.00
2018-05-31T12:47:17.972Z,39.30
2018-05-31T12:49:47.000Z,39.50
2018-05-31T12:52:15.232Z,39.40
2018-05-31T12:54:43.501Z,39.60
2018-05-31T12:57:11.786Z,39.00
2018-05-31T12:59:40.759Z,38.20
2018-05-31T13:02:09.011Z,38.20
2018-05-31T13:04:37.241Z,38.20
2018-05-31T13:07:06.233Z,39.00
2018-05-31T13:09:35.262Z,38.40
2018-05-31T13:12:03.487Z,38.20
2018-05-31T13:14:31.708Z,38.60
2018-05-31T13:16:59.973Z,38.40
2018-05-31T13:19:28.979Z,38.10
2018-05-31T13:21:57.238Z,38.10
2018-05-31T13:24:26.247Z,38.90
2018-05-31T13:26:54.469Z,38.80
2018-05-31T13:29:22.712Z,39.20
2018-05-31T13:31:50.964Z,39.20
2018-05-31T13:34:19.205Z,39.30
2018-05-31T13:36:47.423Z,38.40
2018-05-31T13:39:15.676Z,38.20
2018-05-31T13:41:44.703Z,39.30
2018-05-31T13:44:12.944Z,39.30
2018-05-31T13:46:41.180Z,39.30
2018-05-31T13:49:11.796Z,39.30
2018-05-31T13:51:40.021Z,39.30
2018-05-31T13:54:08.273Z,39.80
2018-05-31T13:56:36.545Z,39.50
2018-05-31T13:59:04.764Z,40.30
2018-05-31T14:01:33.856Z,40.70
2018-05-31T14:04:02.042Z,40.70
2018-05-31T14:06:30.320Z,40.40
2018-05-31T14:08:58.573Z,40.50
2018-05-31T14:11:26.825Z,40.40
2018-05-31T14:13:55.069Z,39.20
2018-05-31T14:16:23.341Z,39.10
2018-05-31T14:18:51.574Z,39.20
2018-05-31T14:21:19.804Z,39.50
2018-05-31T14:23:48.054Z,39.60
2018-05-31T14:26:16.341Z,40.00
2018-05-31T14:28:44.595Z,39.70
2018-05-31T14:31:13.604Z,39.40
2018-05-31T14:33:41.832Z,40.10
2018-05-31T14:36:10.090Z,39.60
2018-05-31T14:38:38.311Z,39.50
2018-05-31T14:41:07.317Z,39.20
2018-05-31T14:43:36.353Z,38.80
2018-05-31T14:46:04.585Z,38.80
2018-05-31T14:48:33.590Z,38.10
2018-05-31T14:51:01.853Z,38.00
2018-05-31T14:53:30.864Z,38.00
2018-05-31T14:55:59.091Z,37.80
2018-05-31T14:58:27.360Z,38.20
2018-05-31T15:00:55.608Z,38.10
2018-05-31T15:03:24.427Z,38.00
2018-05-31T15:05:52.701Z,38.20
2018-05-31T15:08:21.332Z,38.20
2018-05-31T15:10:49.581Z,38.00
2018-05-31T15:13:18.347Z,37.80
2018-05-31T15:15:46.612Z,38.00
2018-05-31T15:18:14.840Z,37.60
2018-05-31T15:20:43.884Z,37.10
2018-05-31T15:23:12.121Z,37.10
2018-05-31T15:25:40.422Z,37.30
2018-05-31T15:28:08.650Z,37.10
2018-05-31T15:30:36.920Z,37.50
2018-05-31T15:33:05.165Z,37.00
2018-05-31T15:35:33.432Z,36.80
2018-05-31T15:38:01.647Z,37.20
2018-05-31T15:40:29.915Z,36.80
2018-05-31T15:42:58.210Z,36.70
2018-05-31T15:45:26.448Z,37.00
2018-05-31T15:47:54.680Z,37.30
2018-05-31T15:50:23.674Z,36.80
2018-05-31T15:52:52.687Z,36.80
2018-05-31T15:55:20.950Z,36.80
2018-05-31T15:57:49.242Z,36.70
2018-05-31T16:00:17.508Z,36.80
2018-05-31T16:02:46.499Z,36.90
2018-05-31T16:05:15.510Z,37.10
2018-05-31T16:07:43.756Z,37.10
2018-05-31T16:10:12.771Z,37.50
2018-05-31T16:12:41.081Z,37.50
2018-05-31T16:15:09.301Z,37.40
2018-05-31T16:17:38.303Z,37.70
2018-05-31T16:20:07.313Z,37.10
2018-05-31T16:22:35.613Z,37.10
2018-05-31T16:25:03.901Z,37.30
2018-05-31T16:27:32.228Z,37.80
2018-05-31T16:30:01.237Z,37.70
2018-05-31T16:32:29.519Z,38.40
2018-05-31T16:34:57.764Z,37.30
2018-05-31T16:37:26.022Z,37.60
2018-05-31T16:39:54.275Z,37.40
2018-05-31T16:42:22.514Z,37.80
2018-05-31T16:44:50.763Z,38.00
2018-05-31T16:47:19.014Z,38.00
2018-05-31T16:49:47.269Z,38.00
2018-05-31T16:52:15.517Z,38.00
2018-05-31T16:54:44.548Z,37.90
2018-05-31T16:57:12.769Z,37.90
2018-05-31T16:59:41.788Z,37.70
2018-05-31T17:02:10.025Z,37.60
2018-05-31T17:04:38.289Z,37.60
2018-05-31T17:07:06.516Z,37.70
2018-05-31T17:09:34.756Z,37.80
2018-05-31T17:12:03.012Z,37.80
2018-05-31T17:14:31.264Z,37.80
2018-05-31T17:16:59.488Z,37.60
2018-05-31T17:19:27.787Z,37.50
2018-05-31T17:21:56.807Z,37.80
2018-05-31T17:24:25.065Z,37.80
2018-05-31T17:26:54.125Z,37.60
2018-05-31T17:29:22.379Z,36.70
2018-05-31T17:31:50.649Z,36.50
2018-05-31T17:34:18.976Z,36.50
2018-05-31T17:36:47.959Z,36.60
2018-05-31T17:39:16.213Z,35.80
2018-05-31T17:41:44.469Z,35.90
2018-05-31T17:44:12.714Z,35.70
2018-05-31T17:46:40.935Z,36.10
2018-05-31T17:49:09.400Z,36.50
2018-05-31T17:51:37.640Z,37.20
2018-05-31T17:54:06.659Z,37.30
2018-05-31T17:56:34.884Z,37.20
2018-05-31T17:59:03.141Z,37.00
2018-05-31T18:01:31.372Z,37.20
2018-05-31T18:03:59.631Z,37.20
2018-05-31T18:06:28.662Z,37.60
2018-05-31T18:08:56.880Z,37.50
2018-05-31T18:11:25.119Z,37.90
2018-05-31T18:13:53.365Z,38.40
2018-05-31T18:16:22.391Z,38.70
2018-05-31T18:18:50.636Z,38.70
2018-05-31T18:21:18.868Z,38.90
2018-05-31T18:23:47.119Z,39.00
2018-05-31T18:26:15.339Z,39.10
2018-05-31T18:28:44.351Z,39.40
2018-05-31T18:31:12.637Z,39.40
2018-05-31T18:33:40.854Z,39.80
2018-05-31T18:36:09.099Z,40.00
2018-05-31T18:38:37.343Z,39.70
2018-05-31T18:41:06.359Z,40.00
2018-05-31T18:43:35.360Z,40.10
2018-05-31T18:46:03.591Z,40.10
2018-05-31T18:48:31.896Z,40.30
2018-05-31T18:51:00.904Z,40.60
2018-05-31T18:53:29.133Z,40.60
2018-05-31T18:55:57.384Z,40.70
2018-05-31T18:58:25.623Z,41.00
2018-05-31T19:00:53.871Z,41.10
2018-05-31T19:03:22.120Z,41.10
2018-05-31T19:05:50.367Z,41.30
2018-05-31T19:08:18.614Z,41.30
2018-05-31T19:10:46.856Z,41.50
2018-05-31T19:13:20.807Z,41.60
2018-05-31T19:15:49.054Z,41.40
2018-05-31T19:18:22.964Z,41.50
2018-05-31T19:20:51.212Z,41.50
2018-05-31T19:23:19.445Z,41.60
2018-05-31T19:25:48.461Z,41.60
2018-05-31T19:28:16.712Z,41.50
2018-05-31T19:30:51.496Z,41.80
2018-05-31T19:33:19.722Z,41.80
2018-05-31T19:35:53.634Z,41.80
2018-05-31T19:38:21.856Z,42.00
2018-05-31T19:40:50.124Z,42.00
2018-05-31T19:43:24.116Z,42.00
2018-05-31T19:45:52.373Z,42.00
2018-05-31T19:48:20.597Z,42.10
2018-05-31T19:50:48.820Z,42.20
2018-05-31T19:53:22.697Z,42.20
2018-05-31T19:55:50.949Z,41.80
2018-05-31T19:58:24.908Z,41.90
2018-05-31T20:00:59.651Z,41.80
2018-05-31T20:03:30.835Z,41.70
2018-05-31T20:05:59.074Z,41.80
2018-05-31T20:08:27.316Z,41.90
2018-05-31T20:10:55.544Z,41.90
2018-05-31T20:13:23.820Z,41.90
2018-05-31T20:15:52.052Z,41.90
2018-05-31T20:18:21.661Z,41.50
2018-05-31T20:20:50.694Z,41.50
2018-05-31T20:23:19.658Z,41.50
2018-05-31T20:25:48.713Z,41.50
2018-05-31T20:28:16.953Z,41.50
2018-05-31T20:30:45.193Z,41.60
2018-05-31T20:33:13.420Z,41.90
2018-05-31T20:35:41.635Z,41.90
2018-05-31T20:38:09.879Z,42.00
2018-05-31T20:40:38.105Z,42.00
2018-05-31T20:43:07.112Z,42.20
2018-05-31T20:45:35.337Z,42.10
2018-05-31T20:48:03.600Z,42.20
2018-05-31T20:50:31.840Z,43.00
2018-05-31T20:53:00.071Z,42.40
2018-05-31T20:55:28.354Z,42.40
2018-05-31T20:57:56.565Z,42.40
2018-05-31T21:00:24.799Z,42.40
2018-05-31T21:02:53.024Z,42.40
2018-05-31T21:05:21.268Z,42.60
2018-05-31T21:07:49.517Z,42.80
2018-05-31T21:10:18.550Z,43.10
2018-05-31T21:12:47.552Z,43.40
2018-05-31T21:15:16.573Z,43.60
2018-05-31T21:17:44.806Z,43.50
2018-05-31T21:20:13.025Z,43.60
2018-05-31T21:22:41.268Z,43.70
2018-05-31T21:25:10.280Z,44.00
2018-05-31T21:27:38.513Z,44.00
2018-05-31T21:30:06.761Z,44.20
2018-05-31T21:32:35.015Z,44.10
2018-05-31T21:35:03.243Z,44.10
2018-05-31T21:37:31.484Z,43.80
2018-05-31T21:39:59.712Z,43.80
2018-05-31T21:42:28.740Z,43.90
2018-05-31T21:44:56.964Z,43.80
2018-05-31T21:47:25.189Z,43.80
2018-05-31T21:49:53.866Z,43.80
2018-05-31T21:52:22.087Z,43.90
2018-05-31T21:54:50.329Z,44.00
2018-05-31T21:57:18.574Z,44.00
2018-05-31T21:59:47.559Z,44.30
2018-05-31T22:02:15.828Z,44.20
2018-05-31T22:04:44.104Z,44.40
2018-05-31T22:07:12.311Z,44.50
2018-05-31T22:09:40.560Z,44.50
2018-05-31T22:12:08.798Z,44.50
2018-05-31T22:14:37.052Z,44.60
2018-05-31T22:17:05.290Z,44.70
2018-05-31T22:19:33.531Z,44.70
2018-05-31T22:22:01.778Z,44.70
2018-05-31T22:24:30.009Z,44.70
2018-05-31T22:26:58.232Z,44.90
2018-05-31T22:29:26.440Z,45.00
2018-05-31T22:31:54.710Z,45.10
2018-05-31T22:34:22.938Z,45.20
2018-05-31T22:36:51.944Z,45.40
2018-05-31T22:39:20.165Z,45.40
2018-05-31T22:41:48.404Z,45.40
2018-05-31T22:44:16.632Z,45.60
2018-05-31T22:46:44.885Z,45.40
2018-05-31T22:49:13.118Z,45.30
2018-05-31T22:51:42.127Z,45.40
2018-05-31T22:54:10.380Z,45.40
2018-05-31T22:56:39.380Z,45.90
2018-05-31T22:59:07.632Z,45.80
2018-05-31T23:01:35.884Z,45.90
2018-05-31T23:04:04.115Z,46.00
2018-05-31T23:06:32.353Z,46.20
2018-05-31T23:09:00.599Z,47.20
2018-05-31T23:11:28.849Z,46.80
2018-05-31T23:13:57.076Z,47.20
2018-05-31T23:16:25.327Z,47.50
2018-05-31T23:18:54.320Z,48.30
2018-05-31T23:21:22.535Z,48.30
2018-05-31T23:23:50.775Z,48.30
2018-05-31T23:26:19.789Z,48.30
2018-05-31T23:28:48.048Z,48.30
2018-05-31T23:31:16.274Z,48.30
2018-05-31T23:33:45.290Z,48.90
2018-05-31T23:36:13.511Z,48.80
2018-05-31T23:38:41.747Z,49.00
2018-05-31T23:41:09.995Z,49.00
2018-05-31T23:43:39.034Z,48.90
2018-05-31T23:46:07.248Z,48.80
2018-05-31T23:48:35.488Z,49.00
2018-05-31T23:51:03.715Z,49.30
2018-05-31T23:53:32.731Z,49.90
2018-05-31T23:56:00.948Z,49.80
2018-05-31T23:58:29.168Z,50.00
